Time,TemperatureF,DewpointF,PressureIn,WindDirection,WindDirectionDegrees,WindSpeedMPH,WindSpeedGustMPH,Humidity,HourlyPrecipIn,Conditions,Clouds,dailyrainin,SolarRadiationWatts/m^2,SoftwareType,DateUTC
2013-09-01 00:00:00,69.5,67.4,29.73,West,263,4.0,4.0,93,0.00,CLR,,0.12,0.0,WeatherDisplay:10.37,2013-09-01 04:00:00,
2013-09-01 00:01:00,69.5,67.4,29.73,West,277,3.5,3.5,93,0.00,RA,,0.00,0.0,WeatherDisplay:10.37,2013-09-01 04:01:00,
2013-09-01 00:02:00,69.5,67.4,29.73,West,277,3.5,3.5,93,0.00,RA,,0.00,0.0,WeatherDisplay:10.37,2013-09-01 04:02:00,
2013-09-01 00:07:00,69.4,67.3,29.73,WNW,284,5.8,5.8,93,0.00,RA,,0.00,0.0,WeatherDisplay:10.37,2013-09-01 04:07:00,
2013-09-01 00:08:00,69.4,67.3,29.73,West,263,7.0,7.0,93,0.00,RA,,0.00,0.0,WeatherDisplay:10.37,2013-09-01 04:08:00,
2013-09-01 00:09:00,69.4,67.3,29.73,West,264,8.1,8.1,93,0.00,RA,,0.00,0.0,WeatherDisplay:10.37,2013-09-01 04:09:00,
2013-09-01 00:14:00,69.3,67.2,29.73,West,269,5.0,5.0,93,0.00,CLR,,0.00,0.0,WeatherDisplay:10.37,2013-09-01 04:14:00,
2013-09-01 00:19:00,69.3,67.2,29.73,West,265,8.1,8.1,93,0.00,CLR,,0.00,0.0,WeatherDisplay:10.37,2013-09-01 04:19:00,
2013-09-01 00:20:00,69.3,67.2,29.73,West,267,8.1,8.1,93,0.00,CLR,,0.00,0.0,WeatherDisplay:10.37,2013-09-01 04:20:00,
2013-09-01 00:25:00,69.3,67.2,29.73,WNW,288,6.0,6.0,93,0.00,CLR,,0.00,0.0,WeatherDisplay:10.37,2013-09-01 04:25:00,
2013-09-01 00:30:00,69.3,67.2,29.73,SSW,213,3.5,3.5,93,0.00,CLR,,0.00,0.0,WeatherDisplay:10.37,2013-09-01 04:30:00,
2013-09-01 00:35:00,69.3,67.2,29.73,WSW,252,5.0,5.0,93,0.00,CLR,,0.00,0.0,WeatherDisplay:10.37,2013-09-01 04:35:00,
2013-09-01 00:40:00,69.3,67.2,29.73,West,270,3.5,3.5,93,0.00,CLR,,0.00,0.0,WeatherDisplay:10.37,2013-09-01 04:40:00,
2013-09-01 00:45:00,69.3,67.2,29.73,WSW,252,3.5,3.5,93,0.00,CLR,,0.00,0.0,WeatherDisplay:10.37,2013-09-01 04:45:00,
2013-09-01 00:50:00,69.3,67.2,29.74,West,264,3.5,3.5,93,0.00,CLR,,0.00,0.0,WeatherDisplay:10.37,2013-09-01 04:50:00,
2013-09-01 00:55:00,69.4,67.3,29.74,West,268,4.6,4.6,93,0.00,CLR,,0.00,0.0,WeatherDisplay:10.37,2013-09-01 04:55:00,
2013-09-01 01:00:00,69.4,67.3,29.74,West,268,5.8,5.8,93,0.00,CLR,,0.00,0.0,WeatherDisplay:10.37,2013-09-01 05:00:00,
2013-09-01 01:05:00,69.3,67.2,29.74,West,268,4.0,4.0,93,0.00,CLR,,0.00,0.0,WeatherDisplay:10.37,2013-09-01 05:05:00,
2013-09-01 01:10:00,69.3,67.2,29.73,West,263,4.0,4.0,93,0.00,CLR,,0.00,0.0,WeatherDisplay:10.37,2013-09-01 05:10:00,
2013-09-01 01:15:00,69.3,67.2,29.73,West,265,5.8,5.8,93,0.00,CLR,,0.00,0.0,WeatherDisplay:10.37,2013-09-01 05:15:00,
2013-09-01 01:20:00,69.3,67.2,29.73,West,268,4.6,4.6,93,0.00,CLR,,0.00,0.0,WeatherDisplay:10.37,2013-09-01 05:20:00,
2013-09-01 01:25:00,69.3,67.2,29.73,West,269,3.5,3.5,93,0.00,CLR,,0.00,0.0,WeatherDisplay:10.37,2013-09-01 05:25:00,
2013-09-01 01:30:00,69.2,67.1,29.73,West,270,3.5,3.5,93,0.00,CLR,,0.00,0.0,WeatherDisplay:10.37,2013-09-01 05:30:00,
2013-09-01 01:35:00,69.2,67.1,29.73,West,270,3.5,3.5,93,0.00,CLR,,0.00,0.0,WeatherDisplay:10.37,2013-09-01 05:35:00,
2013-09-01 01:40:00,69.2,67.1,29.72,West,270,3.5,3.5,93,0.00,CLR,,0.00,0.0,WeatherDisplay:10.37,2013-09-01 05:40:00,
2013-09-01 01:45:00,69.2,67.1,29.73,West,275,3.5,3.5,93,0.00,CLR,,0.00,0.0,WeatherDisplay:10.37,2013-09-01 05:45:00,
2013-09-01 01:50:00,69.1,67.0,29.73,West,263,4.6,4.6,93,0.00,CLR,,0.00,0.0,WeatherDisplay:10.37,2013-09-01 05:50:00,
2013-09-01 01:55:00,69.2,67.1,29.73,WSW,254,2.3,2.3,93,0.00,CLR,,0.00,0.0,WeatherDisplay:10.37,2013-09-01 05:55:00,
2013-09-01 02:00:00,69.1,67.0,29.73,WSW,254,1.0,0.0,93,0.00,CLR,,0.00,0.0,WeatherDisplay:10.37,2013-09-01 06:00:00,
2013-09-01 02:05:00,69.1,67.0,29.74,WSW,254,1.2,1.2,93,0.00,CLR,,0.00,0.0,WeatherDisplay:10.37,2013-09-01 06:05:00,
2013-09-01 02:10:00,69.1,67.3,29.74,WSW,254,1.2,0.0,94,0.00,CLR,,0.00,0.0,WeatherDisplay:10.37,2013-09-01 06:10:00,
2013-09-01 02:15:00,69.1,67.3,29.74,WSW,254,2.3,2.3,94,0.00,CLR,,0.00,0.0,WeatherDisplay:10.37,2013-09-01 06:15:00,
2013-09-01 02:20:00,69.1,67.3,29.74,WSW,245,3.5,3.5,94,0.00,CLR,,0.00,0.0,WeatherDisplay:10.37,2013-09-01 06:20:00,
2013-09-01 02:25:00,69.0,67.2,29.74,West,259,3.5,3.5,94,0.00,CLR,,0.00,0.0,WeatherDisplay:10.37,2013-09-01 06:25:00,
2013-09-01 02:30:00,69.0,67.2,29.74,West,269,3.5,3.5,94,0.00,CLR,,0.00,0.0,WeatherDisplay:10.37,2013-09-01 06:30:00,
2013-09-01 02:35:00,69.0,67.2,29.73,West,273,4.6,4.6,94,0.00,CLR,,0.00,0.0,WeatherDisplay:10.37,2013-09-01 06:35:00,
2013-09-01 02:40:00,69.0,67.2,29.73,West,273,3.5,3.5,94,0.00,CLR,,0.00,0.0,WeatherDisplay:10.37,2013-09-01 06:40:00,
2013-09-01 02:45:00,68.9,67.1,29.73,West,273,1.2,1.2,94,0.00,CLR,,0.00,0.0,WeatherDisplay:10.37,2013-09-01 06:45:00,
2013-09-01 02:50:00,68.9,67.1,29.73,West,273,3.5,3.5,94,0.00,CLR,,0.00,0.0,WeatherDisplay:10.37,2013-09-01 06:50:00,
2013-09-01 02:55:00,68.9,67.1,29.73,West,273,1.2,1.2,94,0.00,CLR,,0.00,0.0,WeatherDisplay:10.37,2013-09-01 06:55:00,
2013-09-01 03:00:00,68.9,67.1,29.73,West,273,0.0,0.0,94,0.00,CLR,,0.00,0.0,WeatherDisplay:10.37,2013-09-01 07:00:00,
2013-09-01 03:05:00,68.8,67.0,29.73,West,273,0.0,0.0,94,0.00,CLR,,0.00,0.0,WeatherDisplay:10.37,2013-09-01 07:05:00,
2013-09-01 03:10:00,68.8,67.0,29.73,West,273,0.0,0.0,94,0.00,CLR,,0.00,0.0,WeatherDisplay:10.37,2013-09-01 07:10:00,
2013-09-01 03:15:00,68.8,67.0,29.72,West,273,1.2,0.0,94,0.00,CLR,,0.00,0.0,WeatherDisplay:10.37,2013-09-01 07:15:00,
2013-09-01 03:20:00,68.8,67.0,29.73,West,273,0.0,0.0,94,0.00,CLR,,0.00,0.0,WeatherDisplay:10.37,2013-09-01 07:20:00,
2013-09-01 03:25:00,68.7,66.9,29.73,West,273,1.2,0.0,94,0.00,CLR,,0.00,0.0,WeatherDisplay:10.37,2013-09-01 07:25:00,
2013-09-01 03:30:00,68.7,66.9,29.73,West,273,1.2,0.0,94,0.00,CLR,,0.00,0.0,WeatherDisplay:10.37,2013-09-01 07:30:00,
2013-09-01 03:35:00,68.6,66.8,29.73,West,273,3.5,3.5,94,0.00,CLR,,0.00,0.0,WeatherDisplay:10.37,2013-09-01 07:35:00,
2013-09-01 03:40:00,68.6,66.8,29.74,West,273,1.2,0.0,94,0.00,CLR,,0.00,0.0,WeatherDisplay:10.37,2013-09-01 07:40:00,
2013-09-01 03:45:00,68.5,66.7,29.74,West,273,0.0,0.0,94,0.00,CLR,,0.00,0.0,WeatherDisplay:10.37,2013-09-01 07:45:00,
2013-09-01 03:50:00,68.5,66.7,29.74,West,273,2.0,2.0,94,0.00,CLR,,0.00,0.0,WeatherDisplay:10.37,2013-09-01 07:50:00,
2013-09-01 03:55:00,68.4,66.9,29.74,West,273,3.5,3.5,95,0.00,CLR,,0.00,0.0,WeatherDisplay:10.37,2013-09-01 07:55:00,
2013-09-01 04:00:00,68.3,66.8,29.74,West,273,1.2,1.2,95,0.00,CLR,,0.00,0.0,WeatherDisplay:10.37,2013-09-01 08:00:00,
2013-09-01 04:05:00,68.3,66.8,29.75,West,273,0.0,0.0,95,0.00,CLR,,0.00,0.0,WeatherDisplay:10.37,2013-09-01 08:05:00,
2013-09-01 04:10:00,68.2,66.7,29.75,West,273,0.0,0.0,95,0.00,CLR,,0.00,0.0,WeatherDisplay:10.37,2013-09-01 08:10:00,
2013-09-01 04:15:00,68.2,66.7,29.75,West,273,1.2,1.2,95,0.00,CLR,,0.00,0.0,WeatherDisplay:10.37,2013-09-01 08:15:00,
2013-09-01 04:20:00,68.2,66.7,29.75,West,273,1.2,1.2,95,0.00,CLR,,0.00,0.0,WeatherDisplay:10.37,2013-09-01 08:20:00,
2013-09-01 04:25:00,68.2,66.7,29.75,West,273,0.0,0.0,95,0.00,CLR,,0.00,0.0,WeatherDisplay:10.37,2013-09-01 08:25:00,
2013-09-01 04:30:00,68.1,66.6,29.75,West,273,0.0,0.0,95,0.00,CLR,,0.00,0.0,WeatherDisplay:10.37,2013-09-01 08:30:00,
2013-09-01 04:35:00,68.1,66.6,29.75,West,273,0.0,0.0,95,0.00,CLR,,0.00,0.0,WeatherDisplay:10.37,2013-09-01 08:35:00,
2013-09-01 04:40:00,68.1,66.6,29.75,West,273,0.0,0.0,95,0.00,CLR,,0.00,0.0,WeatherDisplay:10.37,2013-09-01 08:40:00,
2013-09-01 04:45:00,68.0,66.5,29.75,West,273,0.0,0.0,95,0.00,CLR,,0.00,0.0,WeatherDisplay:10.37,2013-09-01 08:45:00,
2013-09-01 04:50:00,68.0,66.5,29.75,West,273,0.0,0.0,95,0.00,CLR,,0.00,0.0,WeatherDisplay:10.37,2013-09-01 08:50:00,
2013-09-01 04:55:00,67.9,66.4,29.75,West,273,0.0,0.0,95,0.00,CLR,,0.00,0.0,WeatherDisplay:10.37,2013-09-01 08:55:00,
2013-09-01 05:00:00,67.9,66.4,29.75,West,273,0.0,0.0,95,0.00,CLR,,0.00,0.0,WeatherDisplay:10.37,2013-09-01 09:00:00,
2013-09-01 05:05:00,67.8,66.3,29.75,West,273,0.0,0.0,95,0.00,CLR,,0.00,0.0,WeatherDisplay:10.37,2013-09-01 09:05:00,
2013-09-01 05:10:00,67.8,66.3,29.75,West,273,0.0,0.0,95,0.00,CLR,,0.00,0.0,WeatherDisplay:10.37,2013-09-01 09:10:00,
2013-09-01 05:15:00,67.8,66.6,29.75,West,273,0.0,0.0,96,0.00,CLR,,0.00,0.0,WeatherDisplay:10.37,2013-09-01 09:15:00,
2013-09-01 05:20:00,67.7,66.5,29.75,West,273,0.0,0.0,96,0.00,CLR,,0.00,0.0,WeatherDisplay:10.37,2013-09-01 09:20:00,
2013-09-01 05:25:00,67.7,66.5,29.75,West,273,0.0,0.0,96,0.00,CLR,,0.00,0.0,WeatherDisplay:10.37,2013-09-01 09:25:00,
2013-09-01 05:30:00,67.7,66.5,29.75,West,273,0.0,0.0,96,0.00,CLR,,0.00,0.0,WeatherDisplay:10.37,2013-09-01 09:30:00,
2013-09-01 05:35:00,67.7,66.5,29.75,West,273,0.0,0.0,96,0.00,CLR,,0.00,0.0,WeatherDisplay:10.37,2013-09-01 09:35:00,
2013-09-01 05:40:00,67.6,66.4,29.75,West,273,0.0,0.0,96,0.00,CLR,,0.00,0.0,WeatherDisplay:10.37,2013-09-01 09:40:00,
2013-09-01 05:45:00,67.5,66.3,29.75,West,273,0.0,0.0,96,0.00,CLR,,0.00,0.0,WeatherDisplay:10.37,2013-09-01 09:45:00,
2013-09-01 05:50:00,67.4,65.9,29.76,West,273,0.0,0.0,95,0.00,CLR,,0.00,0.0,WeatherDisplay:10.37,2013-09-01 09:50:00,
2013-09-01 05:55:00,67.4,66.2,29.76,West,273,0.0,0.0,96,0.00,CLR,,0.00,0.0,WeatherDisplay:10.37,2013-09-01 09:55:00,
2013-09-01 06:00:00,67.4,66.2,29.76,West,273,0.0,0.0,96,0.00,OVC,,0.00,0.0,WeatherDisplay:10.37,2013-09-01 10:00:00,
2013-09-01 06:05:00,67.4,66.2,29.76,West,273,0.0,0.0,96,0.00,OVC,,0.00,0.0,WeatherDisplay:10.37,2013-09-01 10:05:00,
2013-09-01 06:10:00,67.4,66.2,29.76,West,273,0.0,0.0,96,0.00,OVC,,0.00,0.0,WeatherDisplay:10.37,2013-09-01 10:10:00,
2013-09-01 06:15:00,67.4,66.2,29.76,West,273,0.0,0.0,96,0.00,OVC,,0.00,0.0,WeatherDisplay:10.37,2013-09-01 10:15:00,
2013-09-01 06:20:00,67.4,66.2,29.77,West,273,0.0,0.0,96,0.00,OVC,,0.00,0.0,WeatherDisplay:10.37,2013-09-01 10:20:00,
2013-09-01 06:25:00,67.4,66.2,29.77,West,273,0.0,0.0,96,0.00,OVC,,0.00,0.0,WeatherDisplay:10.37,2013-09-01 10:25:00,
2013-09-01 06:30:00,67.3,66.1,29.77,West,273,0.0,0.0,96,0.00,OVC,,0.00,0.0,WeatherDisplay:10.37,2013-09-01 10:30:00,
2013-09-01 06:35:00,67.4,66.2,29.77,West,273,0.0,0.0,96,0.00,OVC,,0.00,0.0,WeatherDisplay:10.37,2013-09-01 10:35:00,
2013-09-01 06:40:00,67.4,66.2,29.77,West,273,0.0,0.0,96,0.00,OVC,,0.00,0.0,WeatherDisplay:10.37,2013-09-01 10:40:00,
2013-09-01 06:45:00,67.3,66.1,29.77,West,273,0.0,0.0,96,0.00,OVC,,0.00,5.0,WeatherDisplay:10.37,2013-09-01 10:45:00,
2013-09-01 06:50:00,67.3,66.1,29.77,West,273,0.0,0.0,96,0.00,OVC,,0.00,9.0,WeatherDisplay:10.37,2013-09-01 10:50:00,
2013-09-01 06:55:00,67.3,66.1,29.77,West,273,1.2,1.2,96,0.00,OVC,,0.00,12.0,WeatherDisplay:10.37,2013-09-01 10:55:00,
2013-09-01 07:00:00,67.3,66.1,29.77,West,273,0.0,0.0,96,0.00,OVC,,0.00,16.0,WeatherDisplay:10.37,2013-09-01 11:00:00,
2013-09-01 07:05:00,67.3,66.1,29.78,West,273,0.0,0.0,96,0.00,OVC,,0.00,42.0,WeatherDisplay:10.37,2013-09-01 11:05:00,
2013-09-01 07:10:00,67.3,66.4,29.78,West,273,0.0,0.0,97,0.00,OVC,,0.00,37.0,WeatherDisplay:10.37,2013-09-01 11:10:00,
2013-09-01 07:15:00,67.3,66.4,29.78,West,273,0.0,0.0,97,0.00,OVC,,0.00,51.0,WeatherDisplay:10.37,2013-09-01 11:15:00,
2013-09-01 07:20:00,67.3,66.4,29.78,West,273,0.0,0.0,97,0.00,OVC,,0.00,60.0,WeatherDisplay:10.37,2013-09-01 11:20:00,
2013-09-01 07:25:00,67.4,66.5,29.78,West,273,0.0,0.0,97,0.00,OVC,,0.00,90.0,WeatherDisplay:10.37,2013-09-01 11:25:00,
2013-09-01 07:30:00,67.4,66.5,29.78,West,273,0.0,0.0,97,0.00,OVC,,0.00,105.0,WeatherDisplay:10.37,2013-09-01 11:30:00,
2013-09-01 07:35:00,67.5,66.6,29.78,West,273,1.2,0.0,97,0.00,OVC,,0.00,77.0,WeatherDisplay:10.37,2013-09-01 11:35:00,
2013-09-01 07:40:00,67.7,66.8,29.78,West,273,1.2,0.0,97,0.00,OVC,,0.00,104.0,WeatherDisplay:10.37,2013-09-01 11:40:00,
2013-09-01 07:45:00,67.8,66.9,29.78,West,273,0.0,0.0,97,0.00,OVC,,0.00,83.0,WeatherDisplay:10.37,2013-09-01 11:45:00,
2013-09-01 07:50:00,67.9,67.0,29.78,West,273,0.0,0.0,97,0.00,OVC,,0.00,118.0,WeatherDisplay:10.37,2013-09-01 11:50:00,
2013-09-01 07:55:00,68.0,67.1,29.79,West,273,1.2,1.2,97,0.00,OVC,,0.00,113.0,WeatherDisplay:10.37,2013-09-01 11:55:00,
2013-09-01 08:00:00,68.1,67.2,29.79,West,274,1.2,1.2,97,0.00,OVC,,0.00,84.0,WeatherDisplay:10.37,2013-09-01 12:00:00,
2013-09-01 08:05:00,68.2,67.3,29.79,West,274,3.0,3.0,97,0.00,OVC,,0.00,54.0,WeatherDisplay:10.37,2013-09-01 12:05:00,
2013-09-01 08:10:00,68.1,66.9,29.79,West,271,2.3,2.3,96,0.00,OVC,,0.00,49.0,WeatherDisplay:10.37,2013-09-01 12:10:00,
2013-09-01 08:15:00,68.1,66.9,29.80,West,271,0.0,0.0,96,0.00,OVC,,0.00,76.0,WeatherDisplay:10.37,2013-09-01 12:15:00,
2013-09-01 08:20:00,68.0,66.8,29.80,West,275,4.0,4.0,96,0.00,OVC,,0.00,156.0,WeatherDisplay:10.37,2013-09-01 12:20:00,
2013-09-01 08:25:00,68.1,66.9,29.80,West,275,2.3,2.3,96,0.00,OVC,,0.00,255.0,WeatherDisplay:10.37,2013-09-01 12:25:00,
2013-09-01 08:30:00,68.2,67.0,29.79,West,275,3.5,3.5,96,0.00,OVC,,0.00,192.0,WeatherDisplay:10.37,2013-09-01 12:30:00,
2013-09-01 08:35:00,68.4,67.2,29.80,West,273,4.0,4.0,96,0.00,OVC,,0.00,185.0,WeatherDisplay:10.37,2013-09-01 12:35:00,
2013-09-01 08:40:00,68.4,66.9,29.80,West,273,2.3,2.3,95,0.00,OVC,,0.00,279.0,WeatherDisplay:10.37,2013-09-01 12:40:00,
2013-09-01 08:45:00,68.6,67.1,29.80,West,273,2.3,2.3,95,0.00,OVC,,0.00,163.0,WeatherDisplay:10.37,2013-09-01 12:45:00,
2013-09-01 08:50:00,68.8,67.3,29.80,WNW,293,2.3,2.3,95,0.00,OVC,,0.00,160.0,WeatherDisplay:10.37,2013-09-01 12:50:00,
2013-09-01 08:55:00,68.9,67.4,29.80,WNW,288,1.2,1.2,95,0.00,OVC,,0.00,178.0,WeatherDisplay:10.37,2013-09-01 12:55:00,
2013-09-01 09:00:00,69.0,67.2,29.80,WNW,288,1.2,1.2,94,0.00,OVC,,0.00,181.0,WeatherDisplay:10.37,2013-09-01 13:00:00,
2013-09-01 09:05:00,69.1,67.3,29.80,WNW,290,2.3,2.3,94,0.00,OVC,,0.00,155.0,WeatherDisplay:10.37,2013-09-01 13:05:00,
2013-09-01 09:10:00,69.3,67.5,29.79,WNW,290,1.2,1.2,94,0.00,OVC,,0.00,149.0,WeatherDisplay:10.37,2013-09-01 13:10:00,
2013-09-01 09:15:00,69.4,67.3,29.79,WNW,290,1.2,0.0,93,0.00,OVC,,0.00,178.0,WeatherDisplay:10.37,2013-09-01 13:15:00,
2013-09-01 09:20:00,69.5,67.4,29.79,WNW,290,1.2,0.0,93,0.00,OVC,,0.00,221.0,WeatherDisplay:10.37,2013-09-01 13:20:00,
2013-09-01 09:25:00,69.6,67.2,29.79,WNW,290,2.3,2.3,92,0.00,OVC,,0.00,204.0,WeatherDisplay:10.37,2013-09-01 13:25:00,
2013-09-01 09:31:00,69.8,67.4,29.79,WNW,290,0.0,0.0,92,0.00,OVC,,0.00,206.0,WeatherDisplay:10.37,2013-09-01 13:31:00,
2013-09-01 09:36:00,70.0,67.9,29.79,WNW,290,1.2,0.0,93,0.00,OVC,,0.00,209.0,WeatherDisplay:10.37,2013-09-01 13:36:00,
2013-09-01 09:41:00,70.2,67.8,29.79,WNW,290,2.3,2.3,92,0.00,OVC,,0.00,216.0,WeatherDisplay:10.37,2013-09-01 13:41:00,
2013-09-01 09:46:00,70.2,67.4,29.79,WNW,290,0.0,0.0,91,0.00,OVC,,0.00,171.0,WeatherDisplay:10.37,2013-09-01 13:46:00,
2013-09-01 09:51:00,70.3,67.5,29.79,WNW,290,1.2,1.2,91,0.00,OVC,,0.00,183.0,WeatherDisplay:10.37,2013-09-01 13:51:00,
2013-09-01 09:56:00,70.3,67.2,29.79,WNW,290,1.2,1.2,90,0.00,OVC,,0.00,236.0,WeatherDisplay:10.37,2013-09-01 13:56:00,
2013-09-01 10:01:00,70.4,67.3,29.79,WNW,290,2.3,2.3,90,0.00,OVC,,0.00,248.0,WeatherDisplay:10.37,2013-09-01 14:01:00,
2013-09-01 10:06:00,70.5,67.4,29.79,WNW,290,0.0,0.0,90,0.00,OVC,,0.00,239.0,WeatherDisplay:10.37,2013-09-01 14:06:00,
2013-09-01 10:11:00,70.6,67.2,29.79,WNW,290,2.3,2.3,89,0.00,OVC,,0.00,190.0,WeatherDisplay:10.37,2013-09-01 14:11:00,
2013-09-01 10:16:00,70.7,67.3,29.79,WNW,290,1.2,1.2,89,0.00,OVC,,0.00,294.0,WeatherDisplay:10.37,2013-09-01 14:16:00,
2013-09-01 10:21:00,71.0,67.6,29.79,WNW,290,2.3,2.3,89,0.00,OVC,,0.00,443.0,WeatherDisplay:10.37,2013-09-01 14:21:00,
2013-09-01 10:26:00,71.3,67.9,29.79,WNW,290,1.2,1.2,89,0.00,OVC,,0.00,294.0,WeatherDisplay:10.37,2013-09-01 14:26:00,
2013-09-01 10:31:00,71.6,67.5,29.79,WNW,290,1.2,1.2,87,0.00,OVC,,0.00,341.0,WeatherDisplay:10.37,2013-09-01 14:31:00,
2013-09-01 10:36:00,72.3,67.9,29.79,WNW,290,0.0,0.0,86,0.00,OVC,,0.00,392.0,WeatherDisplay:10.37,2013-09-01 14:36:00,
2013-09-01 10:41:00,72.9,68.1,29.79,WNW,290,0.0,0.0,85,0.00,OVC,,0.00,341.0,WeatherDisplay:10.37,2013-09-01 14:41:00,
2013-09-01 10:46:00,73.1,67.6,29.79,WNW,291,0.0,0.0,83,0.00,OVC,,0.00,352.0,WeatherDisplay:10.37,2013-09-01 14:46:00,
2013-09-01 10:51:00,73.5,68.4,29.79,WNW,290,1.2,1.2,84,0.00,OVC,,0.00,418.0,WeatherDisplay:10.37,2013-09-01 14:51:00,
2013-09-01 10:56:00,74.0,68.5,29.79,WNW,291,2.0,2.0,83,0.00,OVC,,0.00,476.0,WeatherDisplay:10.37,2013-09-01 14:56:00,
2013-09-01 11:01:00,74.2,68.3,29.79,NNE,18,2.3,2.3,82,0.00,OVC,,0.00,410.0,WeatherDisplay:10.37,2013-09-01 15:01:00,
2013-09-01 11:06:00,74.2,68.0,29.79,NE,55,1.2,0.0,81,0.00,OVC,,0.00,308.0,WeatherDisplay:10.37,2013-09-01 15:06:00,
2013-09-01 11:11:00,74.4,68.9,29.79,NE,55,1.2,1.2,83,0.00,OVC,,0.00,258.0,WeatherDisplay:10.37,2013-09-01 15:11:00,
2013-09-01 11:16:00,74.4,68.5,29.79,NE,50,2.3,2.3,82,0.00,BKN,,0.00,267.0,WeatherDisplay:10.37,2013-09-01 15:16:00,
2013-09-01 11:21:00,74.4,68.5,29.79,NE,40,1.2,1.2,82,0.00,SCT,,0.00,271.0,WeatherDisplay:10.37,2013-09-01 15:21:00,
2013-09-01 11:26:00,74.4,68.9,29.79,North,5,2.3,2.3,83,0.00,CLR,,0.00,468.0,WeatherDisplay:10.37,2013-09-01 15:26:00,
2013-09-01 11:31:00,74.5,69.0,29.79,North,350,2.3,2.3,83,0.00,CLR,,0.00,468.0,WeatherDisplay:10.37,2013-09-01 15:31:00,
2013-09-01 11:36:00,74.7,69.5,29.79,North,350,1.0,1.0,84,0.00,CLR,,0.00,417.0,WeatherDisplay:10.37,2013-09-01 15:36:00,
2013-09-01 11:41:00,74.8,68.9,29.79,West,266,3.0,3.0,82,0.00,CLR,,0.00,394.0,WeatherDisplay:10.37,2013-09-01 15:41:00,
2013-09-01 11:46:00,74.9,69.0,29.79,West,267,1.2,0.0,82,0.00,CLR,,0.00,420.0,WeatherDisplay:10.37,2013-09-01 15:46:00,
2013-09-01 11:51:00,75.1,69.2,29.79,West,267,0.0,0.0,82,0.00,CLR,,0.00,315.0,WeatherDisplay:10.37,2013-09-01 15:51:00,
2013-09-01 11:56:00,75.2,69.0,29.79,NW,319,1.2,0.0,81,0.00,CLR,,0.00,269.0,WeatherDisplay:10.37,2013-09-01 15:56:00,
2013-09-01 12:01:00,75.2,69.3,29.79,NW,319,0.0,0.0,82,0.00,CLR,,0.00,246.0,WeatherDisplay:10.37,2013-09-01 16:01:00,
2013-09-01 12:06:00,75.2,69.0,29.79,NW,319,1.2,1.2,81,0.00,CLR,,0.00,250.0,WeatherDisplay:10.37,2013-09-01 16:06:00,
2013-09-01 12:11:00,75.1,68.9,29.79,NW,319,2.3,2.3,81,0.00,CLR,,0.00,239.0,WeatherDisplay:10.37,2013-09-01 16:11:00,
2013-09-01 12:16:00,74.9,68.7,29.79,NW,319,2.3,2.3,81,0.00,CLR,,0.00,260.0,WeatherDisplay:10.37,2013-09-01 16:16:00,
2013-09-01 12:21:00,74.8,68.6,29.78,NW,319,1.2,0.0,81,0.00,CLR,,0.00,339.0,WeatherDisplay:10.37,2013-09-01 16:21:00,
2013-09-01 12:26:00,74.7,68.8,29.78,NW,319,3.5,3.5,82,0.00,CLR,,0.00,318.0,WeatherDisplay:10.37,2013-09-01 16:26:00,
2013-09-01 12:31:00,74.8,68.6,29.78,NW,319,2.0,2.0,81,0.00,CLR,,0.00,327.0,WeatherDisplay:10.37,2013-09-01 16:31:00,
2013-09-01 12:36:00,74.9,69.4,29.78,NW,319,2.3,2.3,83,0.00,CLR,,0.00,380.0,WeatherDisplay:10.37,2013-09-01 16:36:00,
2013-09-01 12:41:00,75.0,68.8,29.78,NW,319,1.2,0.0,81,0.00,CLR,,0.00,457.0,WeatherDisplay:10.37,2013-09-01 16:41:00,
2013-09-01 12:46:00,75.5,69.3,29.78,NE,44,2.3,2.3,81,0.00,CLR,,0.00,543.0,WeatherDisplay:10.37,2013-09-01 16:46:00,
2013-09-01 12:51:00,76.4,70.5,29.77,ENE,76,3.5,3.5,82,0.00,CLR,,0.00,1116.0,WeatherDisplay:10.37,2013-09-01 16:51:00,
2013-09-01 12:56:00,76.9,70.3,29.77,NNE,25,3.5,3.5,80,0.00,CLR,,0.00,429.0,WeatherDisplay:10.37,2013-09-01 16:56:00,
2013-09-01 13:01:00,77.2,70.2,29.78,North,9,3.5,3.5,79,0.00,CLR,,0.00,316.0,WeatherDisplay:10.37,2013-09-01 17:01:00,
2013-09-01 13:06:00,77.2,69.8,29.78,NNW,338,2.0,2.0,78,0.00,CLR,,0.00,258.0,WeatherDisplay:10.37,2013-09-01 17:06:00,
2013-09-01 13:11:00,77.2,69.4,29.78,NW,309,3.0,3.0,77,0.00,CLR,,0.00,179.0,WeatherDisplay:10.37,2013-09-01 17:11:00,
2013-09-01 13:16:00,77.1,69.3,29.78,NW,319,3.5,3.5,77,0.00,SCT,,0.00,107.0,WeatherDisplay:10.37,2013-09-01 17:16:00,
2013-09-01 13:21:00,76.7,68.9,29.78,NW,326,3.5,3.5,77,0.00,BKN,,0.00,204.0,WeatherDisplay:10.37,2013-09-01 17:21:00,
2013-09-01 13:26:00,76.3,68.9,29.78,West,279,4.0,4.0,78,0.00,SCT,,0.00,338.0,WeatherDisplay:10.37,2013-09-01 17:26:00,
2013-09-01 13:31:00,75.9,68.9,29.78,West,280,3.5,3.5,79,0.00,CLR,,0.00,338.0,WeatherDisplay:10.37,2013-09-01 17:31:00,
2013-09-01 13:36:00,75.8,68.8,29.78,WNW,302,3.5,3.5,79,0.00,CLR,,0.00,297.0,WeatherDisplay:10.37,2013-09-01 17:36:00,
2013-09-01 13:41:00,75.8,69.2,29.78,North,355,3.0,3.0,80,0.00,CLR,,0.00,462.0,WeatherDisplay:10.37,2013-09-01 17:41:00,
2013-09-01 13:46:00,75.8,69.2,29.78,NW,325,2.3,2.3,80,0.00,CLR,,0.00,415.0,WeatherDisplay:10.37,2013-09-01 17:46:00,
2013-09-01 13:51:00,75.9,69.3,29.78,West,263,3.5,3.5,80,0.00,CLR,,0.00,364.0,WeatherDisplay:10.37,2013-09-01 17:51:00,
2013-09-01 13:56:00,76.0,69.4,29.78,West,263,2.3,2.3,80,0.00,CLR,,0.00,237.0,WeatherDisplay:10.37,2013-09-01 17:56:00,
2013-09-01 14:01:00,75.7,68.7,29.78,West,271,3.5,3.5,79,0.00,SCT,,0.00,186.0,WeatherDisplay:10.37,2013-09-01 18:01:00,
2013-09-01 14:06:00,75.5,68.2,29.78,West,274,3.5,3.5,78,0.00,BKN,,0.00,221.0,WeatherDisplay:10.37,2013-09-01 18:06:00,
2013-09-01 14:11:00,75.3,68.3,29.78,West,271,3.5,3.5,79,0.00,BKN,,0.00,141.0,WeatherDisplay:10.37,2013-09-01 18:11:00,
2013-09-01 14:16:00,75.3,68.7,29.78,West,271,2.3,2.3,80,0.00,BKN,,0.00,396.0,WeatherDisplay:10.37,2013-09-01 18:16:00,
2013-09-01 14:21:00,75.6,69.4,29.78,West,271,1.2,1.2,81,0.00,SCT,,0.00,334.0,WeatherDisplay:10.37,2013-09-01 18:21:00,
2013-09-01 14:26:00,76.0,69.0,29.78,West,261,4.6,4.6,79,0.00,SCT,,0.00,976.0,WeatherDisplay:10.37,2013-09-01 18:26:00,
2013-09-01 14:31:00,76.3,68.9,29.78,WSW,242,5.8,5.8,78,0.00,FEW,,0.00,459.0,WeatherDisplay:10.37,2013-09-01 18:31:00,
2013-09-01 14:36:00,76.2,68.8,29.77,SW,236,3.5,3.5,78,0.00,FEW,,0.00,526.0,WeatherDisplay:10.37,2013-09-01 18:36:00,
2013-09-01 14:41:00,76.5,69.5,29.77,SW,236,2.3,2.3,79,0.00,CLR,,0.00,316.0,WeatherDisplay:10.37,2013-09-01 18:41:00,
2013-09-01 14:46:00,76.6,68.8,29.77,WNW,282,3.5,3.5,77,0.00,FEW,,0.00,246.0,WeatherDisplay:10.37,2013-09-01 18:46:00,
2013-09-01 14:51:00,76.5,69.1,29.77,WNW,283,2.0,2.0,78,0.00,BKN,,0.00,183.0,WeatherDisplay:10.37,2013-09-01 18:51:00,
2013-09-01 14:56:00,76.3,68.9,29.77,WSW,252,3.5,3.5,78,0.00,BKN,,0.00,236.0,WeatherDisplay:10.37,2013-09-01 18:56:00,
2013-09-01 15:01:00,76.1,68.7,29.77,WSW,252,3.5,3.5,78,0.00,BKN,,0.00,410.0,WeatherDisplay:10.37,2013-09-01 19:01:00,
2013-09-01 15:06:00,76.0,69.0,29.77,WSW,252,2.3,2.3,79,0.00,BKN,,0.00,299.0,WeatherDisplay:10.37,2013-09-01 19:06:00,
2013-09-01 15:12:00,76.1,69.1,29.76,WSW,252,3.0,3.0,79,0.00,BKN,,0.00,237.0,WeatherDisplay:10.37,2013-09-01 19:12:00,
2013-09-01 15:17:00,76.1,69.1,29.76,West,263,4.6,4.6,79,0.00,BKN,,0.00,190.0,WeatherDisplay:10.37,2013-09-01 19:17:00,
2013-09-01 15:22:00,76.0,69.0,29.76,West,263,1.2,0.0,79,0.00,BKN,,0.00,176.0,WeatherDisplay:10.37,2013-09-01 19:22:00,
2013-09-01 15:27:00,75.9,68.9,29.76,West,263,0.0,0.0,79,0.00,BKN,,0.00,220.0,WeatherDisplay:10.37,2013-09-01 19:27:00,
2013-09-01 15:32:00,76.0,69.0,29.76,West,263,0.0,0.0,79,0.00,BKN,,0.00,294.0,WeatherDisplay:10.37,2013-09-01 19:32:00,
2013-09-01 15:37:00,76.3,69.7,29.76,West,264,1.2,0.0,80,0.00,BKN,,0.00,670.0,WeatherDisplay:10.37,2013-09-01 19:37:00,
2013-09-01 15:42:00,76.9,69.5,29.76,West,264,0.0,0.0,78,0.00,FEW,,0.00,650.0,WeatherDisplay:10.37,2013-09-01 19:42:00,
2013-09-01 15:47:00,77.8,70.4,29.76,SW,235,2.3,2.3,78,0.00,CLR,,0.00,684.0,WeatherDisplay:10.37,2013-09-01 19:47:00,
2013-09-01 15:52:00,78.5,69.9,29.76,SW,235,1.2,1.2,75,0.00,CLR,,0.00,668.0,WeatherDisplay:10.37,2013-09-01 19:52:00,
2013-09-01 15:57:00,78.8,70.2,29.76,West,271,3.5,3.5,75,0.00,FEW,,0.00,422.0,WeatherDisplay:10.37,2013-09-01 19:57:00,
2013-09-01 16:02:00,78.9,69.5,29.76,WNW,286,1.2,1.2,73,0.00,SCT,,0.00,232.0,WeatherDisplay:10.37,2013-09-01 20:02:00,
2013-09-01 16:07:00,78.8,69.8,29.76,WNW,289,1.2,1.2,74,0.00,BKN,,0.00,206.0,WeatherDisplay:10.37,2013-09-01 20:07:00,
2013-09-01 16:12:00,78.5,69.5,29.76,NW,304,2.3,2.3,74,0.00,BKN,,0.00,204.0,WeatherDisplay:10.37,2013-09-01 20:12:00,
2013-09-01 16:17:00,78.4,69.4,29.76,NW,304,2.0,2.0,74,0.00,BKN,,0.00,243.0,WeatherDisplay:10.37,2013-09-01 20:17:00,
2013-09-01 16:22:00,78.3,70.1,29.76,NW,304,2.0,2.0,76,0.00,BKN,,0.00,304.0,WeatherDisplay:10.37,2013-09-01 20:22:00,
2013-09-01 16:27:00,78.1,70.3,29.76,West,274,3.5,3.5,77,0.00,BKN,,0.00,308.0,WeatherDisplay:10.37,2013-09-01 20:27:00,
2013-09-01 16:32:00,77.9,69.7,29.76,West,274,3.5,3.5,76,0.00,BKN,,0.00,422.0,WeatherDisplay:10.37,2013-09-01 20:32:00,
2013-09-01 16:37:00,77.8,70.0,29.76,West,277,1.2,1.2,77,0.00,SCT,,0.00,478.0,WeatherDisplay:10.37,2013-09-01 20:37:00,
2013-09-01 16:42:00,77.8,69.2,29.76,NNW,344,2.3,0.0,75,0.00,BKN,,0.00,267.0,WeatherDisplay:10.37,2013-09-01 20:42:00,
2013-09-01 16:47:00,77.8,69.6,29.76,NNE,33,2.3,2.3,76,0.00,BKN,,0.00,193.0,WeatherDisplay:10.37,2013-09-01 20:47:00,
2013-09-01 16:52:00,77.8,69.6,29.76,NW,324,2.3,2.3,76,0.00,BKN,,0.00,200.0,WeatherDisplay:10.37,2013-09-01 20:52:00,
2013-09-01 16:57:00,77.6,69.8,29.76,North,355,1.2,1.2,77,0.00,BKN,,0.00,167.0,WeatherDisplay:10.37,2013-09-01 20:57:00,
2013-09-01 17:02:00,77.5,69.7,29.76,North,355,1.2,1.2,77,0.00,BKN,,0.00,116.0,WeatherDisplay:10.37,2013-09-01 21:02:00,
2013-09-01 17:07:00,77.2,69.4,29.76,North,355,1.2,1.2,77,0.00,BKN,,0.00,91.0,WeatherDisplay:10.37,2013-09-01 21:07:00,
2013-09-01 17:12:00,76.9,69.5,29.76,NNE,13,0.0,0.0,78,0.00,BKN,,0.00,79.0,WeatherDisplay:10.37,2013-09-01 21:12:00,
2013-09-01 17:17:00,76.7,69.7,29.77,NNE,13,0.0,0.0,79,0.00,BKN,,0.00,90.0,WeatherDisplay:10.37,2013-09-01 21:17:00,
2013-09-01 17:22:00,76.4,69.8,29.77,SSE,159,3.5,3.5,80,0.00,BKN,,0.00,102.0,WeatherDisplay:10.37,2013-09-01 21:22:00,
2013-09-01 17:27:00,76.1,69.5,29.77,South,185,1.2,0.0,80,0.00,BKN,,0.00,105.0,WeatherDisplay:10.37,2013-09-01 21:27:00,
2013-09-01 17:32:00,75.8,69.6,29.77,South,185,0.0,0.0,81,0.00,BKN,,0.00,86.0,WeatherDisplay:10.37,2013-09-01 21:32:00,
2013-09-01 17:37:00,75.7,69.5,29.77,South,185,0.0,0.0,81,0.00,BKN,,0.00,97.0,WeatherDisplay:10.37,2013-09-01 21:37:00,
2013-09-01 17:42:00,75.6,69.7,29.76,South,185,0.0,0.0,82,0.00,BKN,,0.00,120.0,WeatherDisplay:10.37,2013-09-01 21:42:00,
2013-09-01 17:47:00,75.6,69.7,29.77,South,185,0.0,0.0,82,0.00,BKN,,0.00,95.0,WeatherDisplay:10.37,2013-09-01 21:47:00,
2013-09-01 17:52:00,75.6,69.7,29.77,South,185,0.0,0.0,82,0.00,BKN,,0.00,93.0,WeatherDisplay:10.37,2013-09-01 21:52:00,
2013-09-01 17:57:00,75.6,69.7,29.76,South,178,1.2,1.2,82,0.00,BKN,,0.00,113.0,WeatherDisplay:10.37,2013-09-01 21:57:00,
2013-09-01 18:02:00,75.5,69.6,29.76,ESE,120,0.0,0.0,82,0.00,BKN,,0.00,86.0,WeatherDisplay:10.37,2013-09-01 22:02:00,
2013-09-01 18:07:00,75.5,69.6,29.76,ESE,106,2.3,0.0,82,0.00,BKN,,0.00,76.0,WeatherDisplay:10.37,2013-09-01 22:07:00,
2013-09-01 18:12:00,75.5,69.6,29.76,ESE,106,1.0,1.0,82,0.00,BKN,,0.00,60.0,WeatherDisplay:10.37,2013-09-01 22:12:00,
2013-09-01 18:17:00,75.4,69.5,29.76,ESE,106,0.0,0.0,82,0.00,BKN,,0.00,65.0,WeatherDisplay:10.37,2013-09-01 22:17:00,
2013-09-01 18:22:00,75.3,69.4,29.76,ESE,106,0.0,0.0,82,0.00,BKN,,0.00,81.0,WeatherDisplay:10.37,2013-09-01 22:22:00,
2013-09-01 18:27:00,75.3,69.4,29.75,ESE,106,0.0,0.0,82,0.00,BKN,,0.00,67.0,WeatherDisplay:10.37,2013-09-01 22:27:00,
2013-09-01 18:32:00,75.2,69.7,29.75,ESE,106,0.0,0.0,83,0.00,OVC,,0.00,47.0,WeatherDisplay:10.37,2013-09-01 22:32:00,
2013-09-01 18:37:00,75.2,69.7,29.76,ESE,106,0.0,0.0,83,0.00,BKN,,0.00,60.0,WeatherDisplay:10.37,2013-09-01 22:37:00,
2013-09-01 18:42:00,75.0,69.5,29.75,ESE,106,0.0,0.0,83,0.00,OVC,,0.00,37.0,WeatherDisplay:10.37,2013-09-01 22:42:00,
2013-09-01 18:47:00,74.9,69.4,29.76,ESE,106,0.0,0.0,83,0.00,OVC,,0.00,40.0,WeatherDisplay:10.37,2013-09-01 22:47:00,
2013-09-01 18:52:00,74.7,69.5,29.76,South,169,0.0,0.0,84,0.00,BKN,,0.00,54.0,WeatherDisplay:10.37,2013-09-01 22:52:00,
2013-09-01 18:57:00,74.5,69.3,29.75,South,169,0.0,0.0,84,0.00,OVC,,0.00,33.0,WeatherDisplay:10.37,2013-09-01 22:57:00,
2013-09-01 19:02:00,74.3,69.1,29.75,South,169,0.0,0.0,84,0.00,OVC,,0.00,21.0,WeatherDisplay:10.37,2013-09-01 23:02:00,
2013-09-01 19:07:00,74.0,68.9,29.75,South,169,0.0,0.0,84,0.00,OVC,,0.00,16.0,WeatherDisplay:10.37,2013-09-01 23:07:00,
2013-09-01 19:12:00,73.8,68.7,29.76,South,169,0.0,0.0,84,0.00,OVC,,0.00,14.0,WeatherDisplay:10.37,2013-09-01 23:12:00,
2013-09-01 19:17:00,73.5,68.7,29.75,South,169,0.0,0.0,85,0.00,OVC,,0.00,9.0,WeatherDisplay:10.37,2013-09-01 23:17:00,
2013-09-01 19:22:00,73.2,68.4,29.76,South,169,0.0,0.0,85,0.00,OVC,,0.00,5.0,WeatherDisplay:10.37,2013-09-01 23:22:00,
2013-09-01 19:27:00,72.8,68.4,29.76,SE,140,0.0,0.0,86,0.00,OVC,,0.00,0.0,WeatherDisplay:10.37,2013-09-01 23:27:00,
2013-09-01 19:32:00,72.5,68.1,29.76,SE,140,0.0,0.0,86,0.00,OVC,,0.00,0.0,WeatherDisplay:10.37,2013-09-01 23:32:00,
2013-09-01 19:37:00,72.2,67.8,29.76,SE,140,1.2,0.0,86,0.00,OVC,,0.00,0.0,WeatherDisplay:10.37,2013-09-01 23:37:00,
2013-09-01 19:42:00,71.9,67.8,29.76,SE,140,0.0,0.0,87,0.00,OVC,,0.00,0.0,WeatherDisplay:10.37,2013-09-01 23:42:00,
2013-09-01 19:47:00,71.6,67.5,29.76,SE,140,0.0,0.0,87,0.00,OVC,,0.00,0.0,WeatherDisplay:10.37,2013-09-01 23:47:00,
2013-09-01 19:52:00,71.3,67.6,29.76,SE,140,0.0,0.0,88,0.00,OVC,,0.00,0.0,WeatherDisplay:10.37,2013-09-01 23:52:00,
2013-09-01 19:57:00,71.0,67.6,29.76,SE,140,0.0,0.0,89,0.00,OVC,,0.00,0.0,WeatherDisplay:10.37,2013-09-01 23:57:00,
2013-09-01 20:02:00,70.8,67.4,29.76,SE,140,0.0,0.0,89,0.00,CLR,,0.00,0.0,WeatherDisplay:10.37,2013-09-02 00:02:00,
2013-09-01 20:07:00,70.6,67.2,29.76,SE,140,0.0,0.0,89,0.00,CLR,,0.00,0.0,WeatherDisplay:10.37,2013-09-02 00:07:00,
2013-09-01 20:12:00,70.4,67.0,29.76,SE,140,0.0,0.0,89,0.00,CLR,,0.00,0.0,WeatherDisplay:10.37,2013-09-02 00:12:00,
2013-09-01 20:17:00,70.2,67.1,29.76,SE,140,0.0,0.0,90,0.00,CLR,,0.00,0.0,WeatherDisplay:10.37,2013-09-02 00:17:00,
2013-09-01 20:22:00,69.9,66.8,29.76,SE,140,0.0,0.0,90,0.00,CLR,,0.00,0.0,WeatherDisplay:10.37,2013-09-02 00:22:00,
2013-09-01 20:27:00,69.7,66.6,29.76,SE,140,0.0,0.0,90,0.00,CLR,,0.00,0.0,WeatherDisplay:10.37,2013-09-02 00:27:00,
2013-09-01 20:32:00,69.5,66.4,29.76,SE,140,0.0,0.0,90,0.00,CLR,,0.00,0.0,WeatherDisplay:10.37,2013-09-02 00:32:00,
2013-09-01 20:37:00,69.3,66.2,29.76,SE,140,0.0,0.0,90,0.00,CLR,,0.00,0.0,WeatherDisplay:10.37,2013-09-02 00:37:00,
2013-09-01 20:42:00,69.0,65.9,29.77,SE,140,0.0,0.0,90,0.00,CLR,,0.00,0.0,WeatherDisplay:10.37,2013-09-02 00:42:00,
2013-09-01 20:47:00,68.8,65.7,29.77,SE,140,0.0,0.0,90,0.00,CLR,,0.00,0.0,WeatherDisplay:10.37,2013-09-02 00:47:00,
2013-09-01 20:52:00,68.6,65.9,29.77,SE,140,0.0,0.0,91,0.00,CLR,,0.00,0.0,WeatherDisplay:10.37,2013-09-02 00:52:00,
2013-09-01 20:57:00,68.4,65.7,29.77,SE,140,0.0,0.0,91,0.00,CLR,,0.00,0.0,WeatherDisplay:10.37,2013-09-02 00:57:00,
2013-09-01 21:02:00,68.3,65.9,29.76,SE,140,0.0,0.0,92,0.00,CLR,,0.00,0.0,WeatherDisplay:10.37,2013-09-02 01:02:00,
2013-09-01 21:07:00,68.1,65.7,29.76,SE,140,0.0,0.0,92,0.00,CLR,,0.00,0.0,WeatherDisplay:10.37,2013-09-02 01:07:00,
2013-09-01 21:12:00,67.9,65.5,29.77,SE,140,0.0,0.0,92,0.00,CLR,,0.00,0.0,WeatherDisplay:10.37,2013-09-02 01:12:00,
2013-09-01 21:17:00,67.7,65.3,29.77,SE,140,0.0,0.0,92,0.00,CLR,,0.00,0.0,WeatherDisplay:10.37,2013-09-02 01:17:00,
2013-09-01 21:22:00,67.6,65.2,29.76,SE,140,0.0,0.0,92,0.00,CLR,,0.00,0.0,WeatherDisplay:10.37,2013-09-02 01:22:00,
2013-09-01 21:27:00,67.4,65.3,29.76,SE,140,0.0,0.0,93,0.00,CLR,,0.00,0.0,WeatherDisplay:10.37,2013-09-02 01:27:00,
2013-09-01 21:32:00,67.2,65.1,29.76,SE,140,0.0,0.0,93,0.00,CLR,,0.00,0.0,WeatherDisplay:10.37,2013-09-02 01:32:00,
2013-09-01 21:37:00,67.0,64.9,29.77,SE,140,0.0,0.0,93,0.00,CLR,,0.00,0.0,WeatherDisplay:10.37,2013-09-02 01:37:00,
2013-09-01 21:42:00,66.9,64.8,29.77,SE,140,0.0,0.0,93,0.00,CLR,,0.00,0.0,WeatherDisplay:10.37,2013-09-02 01:42:00,
2013-09-01 21:47:00,66.8,64.7,29.77,SE,140,0.0,0.0,93,0.00,CLR,,0.00,0.0,WeatherDisplay:10.37,2013-09-02 01:47:00,
2013-09-01 21:52:00,66.8,65.0,29.77,SE,140,0.0,0.0,94,0.00,CLR,,0.00,0.0,WeatherDisplay:10.37,2013-09-02 01:52:00,
2013-09-01 21:57:00,66.7,64.9,29.78,SE,140,0.0,0.0,94,0.00,CLR,,0.00,0.0,WeatherDisplay:10.37,2013-09-02 01:57:00,
2013-09-01 22:02:00,66.7,64.9,29.77,SE,140,0.0,0.0,94,0.00,CLR,,0.00,0.0,WeatherDisplay:10.37,2013-09-02 02:02:00,
2013-09-01 22:07:00,66.6,64.8,29.78,SE,140,0.0,0.0,94,0.00,CLR,,0.00,0.0,WeatherDisplay:10.37,2013-09-02 02:07:00,
2013-09-01 22:12:00,66.6,64.8,29.78,SE,140,0.0,0.0,94,0.00,CLR,,0.00,0.0,WeatherDisplay:10.37,2013-09-02 02:12:00,
2013-09-01 22:17:00,66.6,65.1,29.78,SE,140,0.0,0.0,95,0.00,CLR,,0.00,0.0,WeatherDisplay:10.37,2013-09-02 02:17:00,
2013-09-01 22:22:00,66.6,65.1,29.78,SE,138,2.3,2.3,95,0.00,CLR,,0.00,0.0,WeatherDisplay:10.37,2013-09-02 02:22:00,
2013-09-01 22:27:00,66.6,65.1,29.78,SE,138,1.2,0.0,95,0.00,CLR,,0.00,0.0,WeatherDisplay:10.37,2013-09-02 02:27:00,
2013-09-01 22:32:00,66.6,65.1,29.78,SE,138,1.2,1.2,95,0.00,CLR,,0.00,0.0,WeatherDisplay:10.37,2013-09-02 02:32:00,
2013-09-01 22:37:00,66.6,65.1,29.78,SE,138,0.0,0.0,95,0.00,CLR,,0.00,0.0,WeatherDisplay:10.37,2013-09-02 02:37:00,
2013-09-01 22:42:00,66.5,65.0,29.78,SE,138,0.0,0.0,95,0.00,CLR,,0.00,0.0,WeatherDisplay:10.37,2013-09-02 02:42:00,
2013-09-01 22:47:00,66.5,65.3,29.78,SE,138,0.0,0.0,96,0.00,CLR,,0.00,0.0,WeatherDisplay:10.37,2013-09-02 02:47:00,
2013-09-01 22:52:00,66.5,65.3,29.78,SE,138,0.0,0.0,96,0.00,CLR,,0.00,0.0,WeatherDisplay:10.37,2013-09-02 02:52:00,
2013-09-01 22:57:00,66.4,65.2,29.78,SE,138,1.2,0.0,96,0.00,CLR,,0.00,0.0,WeatherDisplay:10.37,2013-09-02 02:57:00,
2013-09-01 23:02:00,66.3,65.1,29.78,SE,138,0.0,0.0,96,0.00,CLR,,0.00,0.0,WeatherDisplay:10.37,2013-09-02 03:02:00,
2013-09-01 23:07:00,66.3,65.1,29.78,SE,138,0.0,0.0,96,0.00,CLR,,0.00,0.0,WeatherDisplay:10.37,2013-09-02 03:07:00,
2013-09-01 23:12:00,66.2,65.0,29.77,SE,138,0.0,0.0,96,0.00,CLR,,0.00,0.0,WeatherDisplay:10.37,2013-09-02 03:12:00,
2013-09-01 23:17:00,66.2,65.0,29.77,SE,138,0.0,0.0,96,0.00,CLR,,0.00,0.0,WeatherDisplay:10.37,2013-09-02 03:17:00,
2013-09-01 23:22:00,66.2,65.0,29.77,SE,138,0.0,0.0,96,0.00,CLR,,0.00,0.0,WeatherDisplay:10.37,2013-09-02 03:22:00,
2013-09-01 23:27:00,66.1,64.9,29.77,SE,138,0.0,0.0,96,0.00,CLR,,0.00,0.0,WeatherDisplay:10.37,2013-09-02 03:27:00,
2013-09-01 23:32:00,66.1,64.9,29.77,WNW,294,2.3,0.0,96,0.00,CLR,,0.00,0.0,WeatherDisplay:10.37,2013-09-02 03:32:00,
2013-09-01 23:37:00,66.1,64.9,29.77,WNW,294,0.0,0.0,96,0.00,CLR,,0.00,0.0,WeatherDisplay:10.37,2013-09-02 03:37:00,
2013-09-01 23:42:00,66.1,64.9,29.77,WNW,294,0.0,0.0,96,0.00,CLR,,0.00,0.0,WeatherDisplay:10.37,2013-09-02 03:42:00,
2013-09-01 23:47:00,66.3,65.1,29.77,WNW,294,0.0,0.0,96,0.00,CLR,,0.00,0.0,WeatherDisplay:10.37,2013-09-02 03:47:00,
2013-09-01 23:52:00,66.3,65.1,29.77,WNW,294,0.0,0.0,96,0.00,CLR,,0.00,0.0,WeatherDisplay:10.37,2013-09-02 03:52:00,
2013-09-01 23:57:00,66.3,65.1,29.77,WNW,294,1.2,1.2,96,0.00,CLR,,0.00,0.0,WeatherDisplay:10.37,2013-09-02 03:57:00,